Time;durP1;ratioP1;P1;durP2;ratioP2;P2;SDS_P1;SDS_P2;PMS_P1;PMS_P2;Temp;Humidity;BMP_temperature;BMP_pressure;BME280_temperature;BME280_humidity;BME280_pressure;Samples;Min_cycle;Max_cycle;Signal;HPM_P1;HPM_P2
2023/08/30 00:00:13;;;;;;;1.23;1.23;;;;;;;12.72;100.00;96129.69;5112174;28;20197;-65
2023/08/30 00:02:40;;;;;;;1.73;1.63;;;;;;;12.75;100.00;96126.69;5112451;28;20208;-64
2023/08/30 00:05:06;;;;;;;2.87;1.57;;;;;;;12.75;100.00;96124.03;5110997;28;20548;-64
2023/08/30 00:07:33;;;;;;;1.30;1.20;;;;;;;12.73;100.00;96120.72;5112618;28;20205;-64
2023/08/30 00:10:00;;;;;;;1.40;1.30;;;;;;;12.76;100.00;96125.69;5111852;28;20718;-66
2023/08/30 00:12:26;;;;;;;1.97;1.40;;;;;;;12.74;100.00;96127.69;5111960;28;20201;-65
2023/08/30 00:14:53;;;;;;;2.77;2.10;;;;;;;12.73;100.00;96127.84;5112117;28;20201;-65
2023/08/30 00:17:20;;;;;;;1.93;1.60;;;;;;;12.76;100.00;96131.00;5112193;28;20201;-64
2023/08/30 00:19:48;;;;;;;2.33;1.60;;;;;;;12.78;100.00;96129.03;5110890;28;20290;-65
2023/08/30 00:22:14;;;;;;;1.40;1.30;;;;;;;12.88;100.00;96129.66;5111854;28;20205;-65
2023/08/30 00:24:41;;;;;;;2.47;1.37;;;;;;;12.91;100.00;96133.78;5111395;28;20211;-66
2023/08/30 00:27:07;;;;;;;1.33;1.33;;;;;;;12.97;100.00;96123.31;5111683;28;20236;-67
2023/08/30 00:29:34;;;;;;;3.17;1.70;;;;;;;12.95;100.00;96125.31;5112062;28;20219;-66
2023/08/30 00:32:00;;;;;;;1.70;1.47;;;;;;;12.94;100.00;96134.28;5112148;28;20220;-65
2023/08/30 00:34:28;;;;;;;1.70;1.60;;;;;;;12.93;100.00;96132.59;5111845;28;20514;-64
2023/08/30 00:36:54;;;;;;;1.93;1.83;;;;;;;12.98;100.00;96124.16;5111181;28;20529;-65
2023/08/30 00:39:21;;;;;;;1.53;1.43;;;;;;;12.91;100.00;96124.00;5111756;28;20208;-64
2023/08/30 00:41:48;;;;;;;1.80;1.70;;;;;;;12.94;100.00;96126.31;5111373;28;20201;-65
2023/08/30 00:44:14;;;;;;;1.57;1.30;;;;;;;12.93;100.00;96122.00;5110810;28;20197;-65
2023/08/30 00:46:41;;;;;;;1.70;1.60;;;;;;;12.91;100.00;96113.38;5111601;28;20228;-63
2023/08/30 00:49:08;;;;;;;2.00;1.37;;;;;;;12.87;100.00;96112.06;5111385;28;20205;-66
2023/08/30 00:51:35;;;;;;;1.60;1.50;;;;;;;12.84;100.00;96116.88;5111352;28;20220;-66
2023/08/30 00:54:02;;;;;;;1.60;1.50;;;;;;;12.77;100.00;96106.13;5110813;28;20652;-65
2023/08/30 00:56:29;;;;;;;1.30;1.30;;;;;;;12.81;100.00;96101.31;5112211;28;20197;-65
2023/08/30 00:58:56;;;;;;;1.53;1.47;;;;;;;12.84;100.00;96112.41;5113930;28;20203;-65
2023/08/30 01:01:22;;;;;;;3.30;1.50;;;;;;;12.91;100.00;96101.94;5112455;28;20625;-64
2023/08/30 01:03:49;;;;;;;1.33;1.30;;;;;;;12.92;100.00;96099.13;5112292;28;20602;-64
2023/08/30 01:06:15;;;;;;;2.13;1.53;;;;;;;12.93;100.00;96094.66;5111023;28;20228;-65
2023/08/30 01:08:44;;;;;;;3.37;2.33;;;;;;;12.91;100.00;96092.16;5111733;28;20209;-66
2023/08/30 01:11:14;;;;;;;1.47;1.43;;;;;;;12.85;100.00;96090.19;5111070;28;20212;-64
2023/08/30 01:13:44;;;;;;;2.73;1.47;;;;;;;12.81;100.00;96086.22;5110686;28;20197;-64
2023/08/30 01:16:10;;;;;;;1.17;1.17;;;;;;;12.82;100.00;96082.53;5111066;28;20228;-65
2023/08/30 01:18:39;;;;;;;1.50;1.40;;;;;;;12.81;100.00;96086.22;5110663;28;21023;-63
2023/08/30 01:21:12;;;;;;;1.47;1.40;;;;;;;12.81;100.00;96086.22;5110419;28;20255;-65
2023/08/30 01:23:43;;;;;;;2.20;1.20;;;;;;;12.86;100.00;96086.53;5111151;28;20189;-65
2023/08/30 01:26:14;;;;;;;1.60;1.50;;;;;;;12.88;100.00;96081.88;5110705;28;20231;-66
2023/08/30 01:28:42;;;;;;;3.33;1.73;;;;;;;12.86;100.00;96083.88;5110288;28;20229;-63
2023/08/30 01:31:09;;;;;;;1.40;1.30;;;;;;;12.78;100.00;96078.59;5110979;28;20205;-65
2023/08/30 01:33:36;;;;;;;1.97;1.80;;;;;;;12.86;100.00;96085.69;5110723;28;20228;-66
2023/08/30 01:36:04;;;;;;;1.80;1.70;;;;;;;12.86;100.00;96083.03;5110536;28;20220;-64
2023/08/30 01:38:32;;;;;;;2.43;1.40;;;;;;;12.86;100.00;96089.19;5110610;28;20207;-64
2023/08/30 01:41:00;;;;;;;1.40;1.40;;;;;;;12.85;100.00;96076.94;5110933;28;20212;-67
2023/08/30 01:43:28;;;;;;;2.43;1.63;;;;;;;12.85;100.00;96076.09;5110698;28;20640;-65
2023/08/30 01:45:57;;;;;;;2.87;1.80;;;;;;;12.91;100.00;96065.63;5110748;28;20699;-65
2023/08/30 01:48:24;;;;;;;2.20;1.47;;;;;;;12.89;100.00;96066.81;5110937;28;20229;-64
2023/08/30 01:50:51;;;;;;;2.53;1.97;;;;;;;12.91;100.00;96065.63;5110208;28;20213;-64
2023/08/30 01:53:17;;;;;;;1.90;1.80;;;;;;;12.91;100.00;96062.97;5110283;28;20216;-68
2023/08/30 01:55:44;;;;;;;2.87;1.90;;;;;;;12.92;100.00;96061.97;5113112;28;20220;-67
2023/08/30 01:58:11;;;;;;;2.00;1.67;;;;;;;12.91;100.00;96062.97;5115065;28;20201;-65
2023/08/30 02:00:37;;;;;;;3.87;2.23;;;;;;;12.93;100.00;96068.91;5114686;28;20197;-64
2023/08/30 02:03:12;;;;;;;3.83;2.20;;;;;;;12.88;100.00;96063.31;5114515;28;20596;-65
2023/08/30 02:05:44;;;;;;;3.27;2.00;;;;;;;12.94;100.00;96067.09;5114978;28;20208;-66
2023/08/30 02:08:14;;;;;;;2.00;1.80;;;;;;;12.89;100.00;96069.44;5124395;28;20190;-66
2023/08/30 02:10:43;;;;;;;3.53;1.80;;;;;;;12.89;100.00;96066.81;5122475;28;20556;-65
2023/08/30 02:13:11;;;;;;;1.87;1.77;;;;;;;12.90;100.00;96058.66;5115396;28;20216;-64
2023/08/30 02:15:41;;;;;;;1.80;1.70;;;;;;;12.89;100.00;96062.28;5115855;28;20208;-66
2023/08/30 02:18:09;;;;;;;2.27;1.87;;;;;;;12.90;100.00;96050.69;5115652;28;20536;-64
2023/08/30 02:20:37;;;;;;;2.27;2.00;;;;;;;12.88;100.00;96059.81;5114293;28;20230;-64
2023/08/30 02:23:04;;;;;;;3.37;1.87;;;;;;;12.82;100.00;96058.66;5114850;28;20208;-65
2023/08/30 02:25:30;;;;;;;4.50;1.90;;;;;;;12.75;100.00;96060.34;5114330;28;20208;-65
2023/08/30 02:27:56;;;;;;;1.60;1.50;;;;;;;12.76;100.00;96064.66;5114061;28;20236;-64
2023/08/30 02:30:23;;;;;;;1.80;1.70;;;;;;;12.72;100.00;96059.88;5096557;28;20261;-66
2023/08/30 02:32:50;;;;;;;1.87;1.77;;;;;;;12.77;100.00;96063.69;5115441;28;20204;-66
2023/08/30 02:35:17;;;;;;;1.60;1.50;;;;;;;12.81;100.00;96069.47;5114676;28;20205;-65
2023/08/30 02:37:45;;;;;;;2.20;2.07;;;;;;;12.84;100.00;96067.31;5114886;28;20197;-65
2023/08/30 02:40:12;;;;;;;1.60;1.50;;;;;;;12.81;100.00;96074.78;5115573;28;20206;-63
2023/08/30 02:42:38;;;;;;;2.87;1.67;;;;;;;12.82;100.00;96077.25;5115219;28;20197;-66
2023/08/30 02:45:07;;;;;;;2.17;2.07;;;;;;;12.84;100.00;96077.91;5116354;28;20201;-64
2023/08/30 02:47:33;;;;;;;3.23;1.57;;;;;;;12.85;100.00;96076.09;5115578;28;20217;-64
2023/08/30 02:50:00;;;;;;;1.73;1.50;;;;;;;12.77;100.00;96079.59;5116759;28;20201;-65
2023/08/30 02:52:27;;;;;;;2.10;1.83;;;;;;;12.86;100.00;96078.56;5115869;28;20208;-64
2023/08/30 02:54:55;;;;;;;1.90;1.70;;;;;;;12.90;100.00;96063.97;5116577;28;20201;-65
2023/08/30 02:57:21;;;;;;;1.57;1.20;;;;;;;12.88;100.00;96060.66;5116341;28;20197;-64
2023/08/30 02:59:48;;;;;;;1.70;1.60;;;;;;;12.88;100.00;96063.31;5117098;28;20235;-65
2023/08/30 03:02:14;;;;;;;2.20;1.50;;;;;;;12.87;100.00;96066.97;5117224;28;20201;-65
2023/08/30 03:04:41;;;;;;;1.63;1.40;;;;;;;12.86;100.00;96062.63;5118460;28;20216;-65
2023/08/30 03:07:07;;;;;;;3.07;1.43;;;;;;;12.86;100.00;96067.13;5118944;27;20239;-64
2023/08/30 03:09:34;;;;;;;1.90;1.80;;;;;;;12.77;100.00;96058.38;5126058;28;20215;-64
2023/08/30 03:12:01;;;;;;;2.80;1.50;;;;;;;12.78;100.00;96067.16;5117356;28;20197;-64
2023/08/30 03:14:28;;;;;;;1.30;1.30;;;;;;;12.81;100.00;96058.84;5114618;28;20628;-65
2023/08/30 03:16:54;;;;;;;1.73;1.60;;;;;;;12.80;100.00;96058.03;5114871;28;20186;-65
2023/08/30 03:19:21;;;;;;;1.50;1.40;;;;;;;12.82;100.00;96049.91;5114147;28;20644;-64
2023/08/30 03:21:47;;;;;;;1.40;1.37;;;;;;;12.83;100.00;96046.22;5112770;28;20227;-65
2023/08/30 03:24:16;;;;;;;2.97;1.67;;;;;;;12.88;100.00;96049.22;5114613;28;20197;-66
2023/08/30 03:26:43;;;;;;;3.13;1.60;;;;;;;12.81;100.00;96038.47;5116007;28;20224;-64
2023/08/30 03:29:11;;;;;;;1.93;1.80;;;;;;;12.77;100.00;96039.81;5114508;28;20194;-66
2023/08/30 03:31:38;;;;;;;1.80;1.70;;;;;;;12.77;100.00;96041.63;5113965;28;20212;-65
2023/08/30 03:34:04;;;;;;;1.63;1.50;;;;;;;12.84;100.00;96043.41;5114035;28;20211;-65
2023/08/30 03:36:30;;;;;;;1.40;1.30;;;;;;;12.82;100.00;96045.41;5113858;28;20189;-67
2023/08/30 03:38:57;;;;;;;1.90;1.40;;;;;;;12.79;100.00;96040.44;5114450;28;20308;-66
2023/08/30 03:41:24;;;;;;;1.50;1.40;;;;;;;12.79;100.00;96045.75;5114586;28;20203;-65
2023/08/30 03:43:50;;;;;;;1.70;1.60;;;;;;;12.82;100.00;96050.72;5114188;28;20201;-66
2023/08/30 03:46:18;;;;;;;1.70;1.60;;;;;;;12.79;100.00;96050.22;5113893;28;20668;-65
2023/08/30 03:48:45;;;;;;;1.80;1.77;;;;;;;12.83;100.00;96049.72;5113412;28;21388;-64
2023/08/30 03:51:11;;;;;;;1.53;1.53;;;;;;;12.77;100.00;96046.94;5112995;28;20216;-66
2023/08/30 03:53:38;;;;;;;3.57;1.60;;;;;;;12.72;100.00;96054.56;5115126;28;20203;-63
2023/08/30 03:56:04;;;;;;;1.93;1.83;;;;;;;12.73;100.00;96065.00;5113755;28;20212;-63
2023/08/30 03:58:32;;;;;;;2.50;1.50;;;;;;;12.72;100.00;96050.09;5113663;28;20213;-63
2023/08/30 04:00:59;;;;;;;1.90;1.80;;;;;;;12.80;100.00;96052.72;5113834;28;20213;-64
2023/08/30 04:03:27;;;;;;;2.57;1.73;;;;;;;12.86;100.00;96067.94;5114049;28;20203;-64
2023/08/30 04:05:56;;;;;;;3.03;2.30;;;;;;;12.86;100.00;96057.34;5114288;28;20205;-64
2023/08/30 04:08:23;;;;;;;2.40;2.03;;;;;;;12.88;100.00;96058.00;5112059;28;20237;-66
2023/08/30 04:10:53;;;;;;;2.20;2.00;;;;;;;12.92;100.00;96067.28;5112907;28;20201;-65
2023/08/30 04:13:19;;;;;;;2.20;1.97;;;;;;;12.90;100.00;96069.25;5112735;28;20201;-65
2023/08/30 04:15:46;;;;;;;2.00;1.80;;;;;;;12.96;100.00;96065.94;5116611;28;20193;-66
2023/08/30 04:18:12;;;;;;;3.33;2.43;;;;;;;12.96;100.00;96068.59;5122236;28;20197;-66
2023/08/30 04:20:44;;;;;;;2.60;2.40;;;;;;;12.92;100.00;96054.00;5123401;28;20201;-66
2023/08/30 04:23:11;;;;;;;2.70;2.60;;;;;;;12.91;100.00;96060.31;5115520;28;20208;-65
2023/08/30 04:25:37;;;;;;;2.83;2.63;;;;;;;12.97;100.00;96056.13;5112290;28;20269;-63
2023/08/30 04:28:05;;;;;;;2.57;2.40;;;;;;;12.96;100.00;96060.63;5112026;28;20247;-66
2023/08/30 04:30:31;;;;;;;2.80;2.70;;;;;;;13.00;100.00;96052.31;5112610;28;20197;-65
2023/08/30 04:32:59;;;;;;;3.13;2.70;;;;;;;13.01;100.00;96064.56;5112537;28;20224;-63
2023/08/30 04:35:25;;;;;;;6.30;2.80;;;;;;;13.02;100.00;96055.63;5112025;28;20562;-66
2023/08/30 04:37:53;;;;;;;3.37;3.07;;;;;;;12.94;100.00;96051.16;5112485;28;20825;-63
2023/08/30 04:40:20;;;;;;;2.20;2.10;;;;;;;12.91;100.00;96051.53;5112121;28;20204;-65
2023/08/30 04:42:46;;;;;;;2.30;2.20;;;;;;;12.88;100.00;96058.00;5112966;28;20216;-64
2023/08/30 04:45:13;;;;;;;2.67;2.30;;;;;;;12.81;100.00;96054.38;5112511;28;20205;-65
2023/08/30 04:47:39;;;;;;;3.83;2.40;;;;;;;12.83;100.00;96062.16;5112004;28;20225;-66
2023/08/30 04:50:07;;;;;;;3.77;2.67;;;;;;;12.90;100.00;96058.66;5111642;28;20209;-65
2023/08/30 04:52:34;;;;;;;4.83;2.13;;;;;;;12.92;100.00;96055.84;5111650;28;20208;-64
2023/08/30 04:55:02;;;;;;;5.23;2.37;;;;;;;12.88;100.00;96050.03;5094214;28;20201;-64
2023/08/30 04:57:29;;;;;;;2.30;2.20;;;;;;;12.90;100.00;96048.03;5111969;28;20209;-65
2023/08/30 04:59:56;;;;;;;2.70;2.50;;;;;;;12.97;100.00;96053.47;5111869;28;20225;-65
2023/08/30 05:02:22;;;;;;;2.23;2.13;;;;;;;13.00;100.00;96057.63;5112011;28;20592;-66
2023/08/30 05:04:49;;;;;;;2.10;2.00;;;;;;;13.02;100.00;96050.31;5111152;28;20204;-64
2023/08/30 05:07:17;;;;;;;2.43;2.33;;;;;;;12.97;100.00;96058.78;5111978;28;20225;-65
2023/08/30 05:09:43;;;;;;;2.20;2.10;;;;;;;13.01;100.00;96053.97;5111622;28;20232;-64
2023/08/30 05:12:11;;;;;;;2.60;2.40;;;;;;;13.05;100.00;96056.09;5111672;28;20209;-66
2023/08/30 05:14:38;;;;;;;2.30;2.20;;;;;;;13.08;100.00;96061.06;5111339;28;20201;-62
2023/08/30 05:17:05;;;;;;;2.30;2.10;;;;;;;13.08;100.00;96061.06;5111706;28;20196;-66
2023/08/30 05:19:31;;;;;;;1.97;1.87;;;;;;;13.10;100.00;96059.13;5111385;28;20212;-66
2023/08/30 05:21:57;;;;;;;3.00;2.37;;;;;;;13.17;100.00;96054.78;5111778;28;20204;-63
2023/08/30 05:24:26;;;;;;;4.07;2.60;;;;;;;13.16;100.00;96052.28;5111752;28;20216;-64
2023/08/30 05:26:53;;;;;;;2.27;2.03;;;;;;;13.13;100.00;96052.63;5092736;28;20599;-64
2023/08/30 05:29:20;;;;;;;1.93;1.83;;;;;;;13.13;100.00;96052.63;5110702;28;20201;-65
2023/08/30 05:31:47;;;;;;;2.13;1.60;;;;;;;13.16;100.00;96044.31;5111250;28;20216;-64
2023/08/30 05:34:14;;;;;;;1.80;1.70;;;;;;;13.19;100.00;96052.75;5109715;28;20208;-64
2023/08/30 05:36:42;;;;;;;1.60;1.50;;;;;;;13.17;100.00;96056.59;5111003;28;20651;-64
2023/08/30 05:39:09;;;;;;;2.00;1.90;;;;;;;13.15;100.00;96056.75;5111281;28;20201;-64
2023/08/30 05:41:35;;;;;;;2.30;2.10;;;;;;;13.15;100.00;96055.91;5111261;28;20203;-65
2023/08/30 05:44:02;;;;;;;2.07;1.90;;;;;;;13.21;100.00;96061.41;5111138;28;20213;-65
2023/08/30 05:46:32;;;;;;;1.73;1.63;;;;;;;13.31;100.00;96058.50;5111304;28;20201;-66
2023/08/30 05:49:00;;;;;;;3.83;2.30;;;;;;;13.33;100.00;96060.00;5111037;28;20213;-66
2023/08/30 05:51:27;;;;;;;3.67;3.47;;;;;;;13.40;100.00;96057.47;5110751;28;20200;-66
2023/08/30 05:53:54;;;;;;;4.07;3.80;;;;;;;13.43;100.00;96052.63;5110750;28;20201;-63
2023/08/30 05:56:20;;;;;;;4.10;3.80;;;;;;;13.52;100.00;96058.72;5111658;28;20199;-62
2023/08/30 05:58:48;;;;;;;4.23;3.83;;;;;;;13.58;100.00;96063.31;5111915;28;20596;-64
2023/08/30 06:01:15;;;;;;;4.60;4.20;;;;;;;13.70;100.00;96050.47;5111272;28;20204;-64
2023/08/30 06:03:42;;;;;;;4.40;4.10;;;;;;;13.72;100.00;96053.78;5112325;28;20566;-64
2023/08/30 06:06:10;;;;;;;3.83;3.60;;;;;;;13.78;100.00;96061.84;5112777;28;20201;-65
2023/08/30 06:08:36;;;;;;;4.33;4.03;;;;;;;13.81;100.00;96066.84;5094744;28;20227;-66
2023/08/30 06:11:03;;;;;;;4.00;3.70;;;;;;;13.85;100.00;96065.47;5113468;28;20246;-64
2023/08/30 06:13:30;;;;;;;4.23;3.93;;;;;;;13.83;100.00;96064.00;5110989;28;20230;-63
2023/08/30 06:15:56;;;;;;;4.10;3.77;;;;;;;13.86;100.00;96066.28;5093407;28;20209;-65
2023/08/30 06:18:23;;;;;;;5.67;4.17;;;;;;;13.81;100.00;96074.00;5110782;28;20208;-65
2023/08/30 06:20:50;;;;;;;3.93;3.70;;;;;;;13.88;100.00;96069.63;5110875;28;20528;-65
2023/08/30 06:23:19;;;;;;;4.53;4.10;;;;;;;13.91;100.00;96075.41;5110800;28;20208;-66
2023/08/30 06:25:45;;;;;;;4.23;3.93;;;;;;;14.00;100.00;96062.03;5111225;28;20200;-64
2023/08/30 06:28:12;;;;;;;4.07;3.77;;;;;;;14.00;100.00;96056.72;5110556;28;20233;-66
2023/08/30 06:30:38;;;;;;;4.17;3.87;;;;;;;14.03;100.00;96056.38;5124665;28;20197;-66
2023/08/30 06:33:05;;;;;;;5.60;4.90;;;;;;;14.14;100.00;96056.75;5123257;28;20193;-64
2023/08/30 06:35:34;;;;;;;4.63;4.23;;;;;;;14.28;100.00;96063.94;5124592;28;20212;-64
2023/08/30 06:38:04;;;;;;;4.60;4.10;;;;;;;14.38;100.00;96066.41;5114122;28;20209;-66
2023/08/30 06:40:30;;;;;;;4.70;4.40;;;;;;;14.46;100.00;96068.97;5111500;28;20201;-64
2023/08/30 06:42:58;;;;;;;4.13;3.83;;;;;;;14.49;100.00;96073.13;5114383;28;20198;-65
2023/08/30 06:45:25;;;;;;;4.70;4.40;;;;;;;14.51;100.00;96069.28;5114890;28;20204;-65
2023/08/30 06:47:52;;;;;;;4.30;4.00;;;;;;;14.54;100.00;96074.22;5114395;28;21382;-63
2023/08/30 06:50:21;;;;;;;8.20;4.87;;;;;;;14.62;100.00;96068.84;5114243;28;20549;-64
2023/08/30 06:52:48;;;;;;;8.10;4.97;;;;;;;14.70;100.00;96071.38;5114927;28;20530;-67
2023/08/30 06:55:16;;;;;;;4.93;4.53;;;;;;;14.89;100.00;96065.53;5114369;28;20208;-64
2023/08/30 06:57:42;;;;;;;5.33;4.83;;;;;;;15.14;100.00;96067.91;5114372;28;20217;-65
2023/08/30 07:00:10;;;;;;;4.80;4.40;;;;;;;15.32;100.00;96068.34;5113504;28;20208;-66
2023/08/30 07:02:38;;;;;;;4.77;4.23;;;;;;;15.46;100.00;96067.50;5113279;28;20212;-68
2023/08/30 07:05:07;;;;;;;7.22;4.65;;;;;;;15.59;100.00;96062.34;5112834;28;20204;-64
2023/08/30 07:07:33;;;;;;;4.83;4.23;;;;;;;16.02;100.00;96062.38;5113705;28;20361;-65
2023/08/30 07:10:00;;;;;;;5.15;4.75;;;;;;;16.23;100.00;96070.38;5113405;28;20250;-65
2023/08/30 07:12:28;;;;;;;5.00;4.57;;;;;;;16.63;100.00;96060.88;5113702;28;20209;-65
2023/08/30 07:14:54;;;;;;;4.95;4.55;;;;;;;17.08;100.00;96065.69;5113506;28;20209;-65
2023/08/30 07:17:21;;;;;;;3.80;3.60;;;;;;;17.40;100.00;96064.19;5113448;28;20255;-65
2023/08/30 07:19:48;;;;;;;3.40;3.15;;;;;;;17.61;100.00;96056.06;5113202;28;20201;-65
2023/08/30 07:22:16;;;;;;;3.20;3.00;;;;;;;17.66;100.00;96056.31;5114004;28;20530;-66
2023/08/30 07:24:42;;;;;;;4.93;2.90;;;;;;;17.75;100.00;96057.75;5113645;28;20216;-65
2023/08/30 07:27:09;;;;;;;3.10;2.80;;;;;;;17.80;100.00;96059.84;5113191;28;20540;-64
2023/08/30 07:29:37;;;;;;;3.45;3.15;;;;;;;17.77;100.00;96061.06;5112759;28;20232;-64
2023/08/30 07:32:04;;;;;;;5.30;3.25;;;;;;;18.06;100.00;96056.41;5113032;28;20197;-64
2023/08/30 07:34:31;;;;;;;3.00;2.80;;;;;;;18.32;100.00;96059.91;5095365;28;20209;-65
2023/08/30 07:36:57;;;;;;;5.38;2.97;;;;;;;18.26;100.00;96054.56;5111476;28;20208;-65
2023/08/30 07:39:23;;;;;;;2.58;2.42;;;;;;;18.43;100.00;96055.81;5112989;28;20258;-64
2023/08/30 07:41:50;;;;;;;3.72;2.70;;;;;;;18.46;99.48;96066.09;5112643;28;20209;-65
2023/08/30 07:44:17;;;;;;;2.35;2.15;;;;;;;18.63;100.00;96062.03;5113017;28;20197;-64
2023/08/30 07:46:45;;;;;;;2.50;2.30;;;;;;;18.65;98.36;96062.63;5112655;28;20205;-67
2023/08/30 07:49:11;;;;;;;1.98;1.88;;;;;;;18.30;100.00;96061.16;5112843;28;20217;-65
2023/08/30 07:51:38;;;;;;;2.35;1.70;;;;;;;18.25;100.00;96058.25;5112692;28;20207;-65
2023/08/30 07:54:04;;;;;;;2.00;1.80;;;;;;;17.87;100.00;96056.16;5112751;28;20201;-63
2023/08/30 07:56:31;;;;;;;1.30;1.20;;;;;;;17.68;100.00;96056.91;5112928;28;20208;-64
2023/08/30 07:58:58;;;;;;;0.90;0.85;;;;;;;17.55;100.00;96064.03;5112749;28;20506;-63
2023/08/30 08:01:24;;;;;;;1.05;1.02;;;;;;;17.22;100.00;96062.06;5113607;28;20272;-64
2023/08/30 08:03:52;;;;;;;0.60;0.60;;;;;;;17.09;100.00;96067.34;5112722;28;20370;-66
2023/08/30 08:06:19;;;;;;;0.82;0.82;;;;;;;16.87;100.00;96068.44;5112649;28;20205;-66
2023/08/30 08:08:45;;;;;;;0.82;0.80;;;;;;;16.73;100.00;96075.53;5113109;28;20547;-65
2023/08/30 08:11:12;;;;;;;0.95;0.95;;;;;;;16.58;100.00;96072.13;5112433;28;20582;-65
2023/08/30 08:13:38;;;;;;;2.08;1.38;;;;;;;16.56;100.00;96070.69;5111792;28;20644;-65
2023/08/30 08:16:05;;;;;;;0.93;0.93;;;;;;;16.46;100.00;96073.66;5112319;28;20205;-66
2023/08/30 08:18:31;;;;;;;1.40;1.30;;;;;;;16.45;100.00;96066.66;5112350;28;20201;-64
2023/08/30 08:21:01;;;;;;;1.00;1.00;;;;;;;16.35;100.00;96064.34;5111574;28;20208;-65
2023/08/30 08:23:27;;;;;;;0.80;0.80;;;;;;;16.31;100.00;96064.91;5111401;28;20636;-66
2023/08/30 08:25:58;;;;;;;1.00;1.00;;;;;;;16.33;100.00;96068.22;5111940;28;20220;-65
2023/08/30 08:28:24;;;;;;;1.17;1.10;;;;;;;16.33;100.00;96062.88;5112115;28;20251;-65
2023/08/30 08:30:51;;;;;;;1.50;1.40;;;;;;;16.29;100.00;96061.63;5112589;28;20193;-64
2023/08/30 08:33:18;;;;;;;1.52;1.42;;;;;;;16.07;100.00;96067.97;5112899;28;20205;-64
2023/08/30 08:35:47;;;;;;;1.35;1.25;;;;;;;15.99;100.00;96068.91;5112095;28;20200;-64
2023/08/30 08:38:15;;;;;;;1.42;1.30;;;;;;;15.93;100.00;96069.69;5112578;28;20193;-64
2023/08/30 08:40:41;;;;;;;1.45;1.35;;;;;;;15.88;100.00;96069.41;5112338;28;20197;-65
2023/08/30 08:43:12;;;;;;;1.30;1.20;;;;;;;15.90;100.00;96072.75;5119018;28;20209;-64
2023/08/30 08:45:41;;;;;;;1.60;1.50;;;;;;;15.96;100.00;96074.63;5128932;28;20670;-66
2023/08/30 08:48:08;;;;;;;1.25;1.25;;;;;;;16.03;100.00;96080.03;5124854;28;20209;-66
2023/08/30 08:50:34;;;;;;;2.72;1.33;;;;;;;16.12;100.00;96071.72;5113517;28;20197;-66
2023/08/30 08:53:02;;;;;;;1.60;1.40;;;;;;;16.17;100.00;96068.47;5112367;28;20197;-64
2023/08/30 08:55:31;;;;;;;1.45;1.42;;;;;;;16.25;100.00;96065.69;5111564;28;20197;-64
2023/08/30 08:57:58;;;;;;;1.58;1.40;;;;;;;16.35;100.00;96074.19;5111434;28;20256;-63
2023/08/30 09:00:26;;;;;;;1.83;1.73;;;;;;;16.38;100.00;96074.63;5110763;28;20197;-64
2023/08/30 09:02:54;;;;;;;2.92;1.45;;;;;;;16.43;100.00;96076.72;5093121;28;20205;-63
2023/08/30 09:05:23;;;;;;;1.90;1.55;;;;;;;16.56;100.00;96074.19;5109921;28;20205;-65
2023/08/30 09:07:53;;;;;;;1.38;1.38;;;;;;;16.60;100.00;96078.13;5111492;28;20208;-65
2023/08/30 09:10:20;;;;;;;1.30;1.20;;;;;;;16.67;100.00;96076.31;5112587;28;20205;-65
2023/08/30 09:12:48;;;;;;;1.48;1.38;;;;;;;16.82;100.00;96074.38;5111788;28;20508;-67
2023/08/30 09:15:16;;;;;;;1.10;1.10;;;;;;;16.91;100.00;96070.53;5111875;28;20225;-65
2023/08/30 09:17:42;;;;;;;1.27;1.25;;;;;;;17.07;100.00;96076.56;5111968;28;20209;-65
2023/08/30 09:20:11;;;;;;;1.25;1.25;;;;;;;17.20;100.00;96082.00;5111208;28;20270;-65
2023/08/30 09:22:39;;;;;;;1.77;1.40;;;;;;;17.31;100.00;96081.44;5110795;28;20205;-68
2023/08/30 09:25:07;;;;;;;1.45;1.35;;;;;;;17.47;100.00;96080.25;5111716;28;20205;-64
2023/08/30 09:27:34;;;;;;;1.77;1.67;;;;;;;17.56;100.00;96076.41;5110459;28;20229;-64
2023/08/30 09:30:02;;;;;;;1.92;1.83;;;;;;;17.70;100.00;96081.63;5111704;28;20293;-64
2023/08/30 09:32:29;;;;;;;2.10;2.00;;;;;;;17.84;100.00;96075.28;5111083;28;20552;-70
2023/08/30 09:34:56;;;;;;;1.88;1.70;;;;;;;17.84;99.66;96077.97;5111174;28;20838;-65
2023/08/30 09:37:26;;;;;;;1.77;1.60;;;;;;;17.92;100.00;96079.63;5111348;28;20197;-64
2023/08/30 09:39:53;;;;;;;1.73;1.63;;;;;;;17.92;99.72;96068.94;5112609;28;20185;-62
2023/08/30 09:42:19;;;;;;;2.63;1.67;;;;;;;18.04;100.00;96066.47;5111672;28;20205;-65
2023/08/30 09:44:47;;;;;;;2.42;1.55;;;;;;;18.10;97.46;96065.69;5111602;28;20205;-64
2023/08/30 09:47:17;;;;;;;1.80;1.70;;;;;;;18.11;96.06;96064.63;5111086;28;20644;-66
2023/08/30 09:49:45;;;;;;;1.65;1.55;;;;;;;18.05;94.22;96068.13;5111554;28;20209;-64
2023/08/30 09:52:13;;;;;;;1.98;1.88;;;;;;;18.39;99.02;96067.94;5111736;28;20197;-63
2023/08/30 09:54:43;;;;;;;1.52;1.42;;;;;;;18.60;94.23;96057.06;5111481;28;20564;-65
2023/08/30 09:57:10;;;;;;;1.50;0.98;;;;;;;18.86;91.72;96064.25;5110711;28;20239;-65
2023/08/30 09:59:37;;;;;;;1.35;1.30;;;;;;;19.27;95.03;96058.63;5110627;28;20189;-64
2023/08/30 10:02:05;;;;;;;1.45;1.35;;;;;;;19.65;91.08;96050.66;5109690;28;21401;-63
2023/08/30 10:04:33;;;;;;;1.95;1.38;;;;;;;19.86;89.93;96053.84;5109958;28;20224;-64
2023/08/30 10:06:59;;;;;;;1.30;1.30;;;;;;;20.19;87.73;96053.59;5109891;28;20209;-66
2023/08/30 10:09:30;;;;;;;1.55;1.45;;;;;;;19.80;78.51;96049.31;5111130;28;20224;-65
2023/08/30 10:11:59;;;;;;;2.05;1.60;;;;;;;19.81;82.38;96045.59;5110708;28;20223;-64
2023/08/30 10:14:25;;;;;;;1.50;1.40;;;;;;;20.06;81.95;96042.97;5110984;28;20213;-63
2023/08/30 10:17:02;;;;;;;1.25;1.25;;;;;;;20.19;85.90;96040.19;5113289;28;20205;-65
2023/08/30 10:19:30;;;;;;;1.45;1.35;;;;;;;20.32;82.92;96042.81;5115301;28;20224;-65
2023/08/30 10:22:01;;;;;;;1.58;1.48;;;;;;;20.17;76.13;96033.41;5114678;28;20616;-64
2023/08/30 10:24:29;;;;;;;2.13;1.30;;;;;;;20.07;76.07;96033.88;5114290;28;20197;-63
2023/08/30 10:26:56;;;;;;;1.48;1.38;;;;;;;20.13;77.28;96033.00;5114371;28;20233;-65
2023/08/30 10:29:24;;;;;;;1.55;0.93;;;;;;;20.43;77.30;96027.03;5113650;28;20313;-64
2023/08/30 10:31:50;;;;;;;1.83;1.48;;;;;;;20.63;75.27;96023.16;5114276;28;20211;-67
2023/08/30 10:34:19;;;;;;;1.50;1.40;;;;;;;20.63;74.02;96028.50;5114066;28;20197;-65
2023/08/30 10:36:45;;;;;;;1.98;1.88;;;;;;;20.54;72.55;96027.16;5113683;28;20627;-64
2023/08/30 10:39:14;;;;;;;1.70;1.60;;;;;;;20.31;72.34;96019.69;5114555;28;20208;-64
2023/08/30 10:41:55;;;;;;;2.10;1.70;;;;;;;20.52;75.96;96025.72;5115628;28;20197;-65
2023/08/30 10:44:23;;;;;;;1.70;1.70;;;;;;;20.75;76.40;96025.94;5115676;28;20197;-64
2023/08/30 10:46:53;;;;;;;1.95;1.85;;;;;;;20.82;75.17;96027.53;5115315;28;20203;-64
2023/08/30 10:49:21;;;;;;;1.80;1.63;;;;;;;20.91;78.46;96027.22;5114894;28;20225;-64
2023/08/30 10:51:58;;;;;;;1.73;1.63;;;;;;;20.95;79.72;96023.03;5115401;28;20216;-64
2023/08/30 10:54:39;;;;;;;1.88;1.77;;;;;;;20.49;72.62;96021.63;5115593;28;20215;-64
2023/08/30 10:57:06;;;;;;;1.77;1.67;;;;;;;20.37;76.43;96012.63;5114245;28;20205;-65
2023/08/30 10:59:32;;;;;;;1.75;1.65;;;;;;;20.51;80.95;96008.78;5114140;28;20197;-65
2023/08/30 11:02:03;;;;;;;2.00;1.88;;;;;;;20.50;77.62;96011.69;5114181;28;20212;-66
2023/08/30 11:04:29;;;;;;;1.48;1.38;;;;;;;20.36;75.39;96002.94;5113734;28;20212;-65
2023/08/30 11:06:56;;;;;;;1.70;1.70;;;;;;;20.48;73.47;96003.84;5118459;28;20208;-66
2023/08/30 11:09:24;;;;;;;1.65;1.58;;;;;;;20.67;77.29;96005.53;5120938;28;20225;-65
2023/08/30 11:11:52;;;;;;;2.05;1.95;;;;;;;20.74;77.37;95992.88;5122570;28;20223;-64
2023/08/30 11:14:20;;;;;;;2.45;1.80;;;;;;;20.76;77.61;95996.13;5120825;28;20201;-63
2023/08/30 11:16:46;;;;;;;1.92;1.67;;;;;;;21.18;78.54;95996.34;5118468;28;20235;-64
2023/08/30 11:19:14;;;;;;;2.40;1.65;;;;;;;21.35;76.91;95997.38;5115072;28;20199;-65
2023/08/30 11:21:43;;;;;;;2.65;1.90;;;;;;;21.39;74.15;95995.91;5113982;28;20228;-66
2023/08/30 11:24:11;;;;;;;1.90;1.80;;;;;;;21.13;71.73;95997.03;5114804;28;20209;-65
2023/08/30 11:26:39;;;;;;;2.03;1.25;;;;;;;20.99;66.79;95991.97;5113682;28;20205;-64